createdAt,value
2022-11-18T00:01:36.459Z,7.574463
2022-11-18T00:05:01.716Z,7.584534
2022-11-18T00:08:26.921Z,7.634888
2022-11-18T00:11:52.150Z,7.584534
2022-11-18T00:15:17.326Z,7.604675
2022-11-18T00:18:42.580Z,7.634888
2022-11-18T00:22:07.769Z,7.614746
2022-11-18T00:25:32.990Z,7.614746
2022-11-18T00:28:58.213Z,7.634888
2022-11-18T00:32:23.383Z,7.584534
2022-11-18T00:35:48.592Z,7.503967
2022-11-18T00:39:13.819Z,7.493896
2022-11-18T00:42:38.995Z,7.524109
2022-11-18T00:46:04.237Z,7.584534
2022-11-18T00:49:29.410Z,7.584534
2022-11-18T00:52:54.623Z,7.685242
2022-11-18T00:56:19.837Z,7.78595
2022-11-18T00:59:45.044Z,7.856445
2022-11-18T01:03:10.245Z,7.896729
2022-11-18T01:06:35.436Z,7.816162
2022-11-18T01:10:00.643Z,7.735596
2022-11-18T01:13:25.856Z,7.715454
2022-11-18T01:16:51.063Z,7.715454
2022-11-18T01:20:16.309Z,7.816162
2022-11-18T01:23:41.530Z,7.816162
2022-11-18T01:27:06.741Z,7.816162
2022-11-18T01:30:31.980Z,7.796021
2022-11-18T01:33:57.188Z,7.896729
2022-11-18T01:37:22.412Z,7.896729
2022-11-18T01:40:47.611Z,7.856445
2022-11-18T01:44:13.397Z,7.866516
2022-11-18T01:47:38.606Z,7.896729
2022-11-18T01:51:03.815Z,7.947083
2022-11-18T01:54:29.046Z,7.977295
2022-11-18T01:57:54.236Z,8.017578
2022-11-18T02:01:19.537Z,8.067932
2022-11-18T02:04:44.675Z,8.118286
2022-11-18T02:08:09.860Z,8.188782
2022-11-18T02:11:35.195Z,8.158569
2022-11-18T02:15:00.292Z,8.158569
2022-11-18T02:18:25.489Z,8.098145
2022-11-18T02:21:50.719Z,8.078003
2022-11-18T02:25:15.951Z,8.078003
2022-11-18T02:28:41.204Z,8.178711
2022-11-18T02:32:06.393Z,8.218994
2022-11-18T02:35:31.601Z,8.279419
2022-11-18T02:38:56.827Z,8.339844
2022-11-18T02:42:22.032Z,8.28949
2022-11-18T02:45:47.284Z,8.148499
2022-11-18T02:49:12.496Z,8.078003
2022-11-18T02:52:37.700Z,7.967224
2022-11-18T02:56:02.915Z,7.947083
2022-11-18T02:59:28.141Z,7.967224
2022-11-18T03:02:53.351Z,7.947083
2022-11-18T03:06:18.540Z,7.977295
2022-11-18T03:09:43.755Z,7.977295
2022-11-18T03:13:08.961Z,7.947083
2022-11-18T03:16:34.196Z,7.926941
2022-11-18T03:19:59.438Z,7.967224
2022-11-18T03:23:24.621Z,8.017578
2022-11-18T03:26:49.835Z,8.078003
2022-11-18T03:30:15.044Z,8.118286
2022-11-18T03:33:40.255Z,8.178711
2022-11-18T03:37:10.117Z,8.118286
2022-11-18T03:40:30.666Z,8.118286
2022-11-18T03:43:55.869Z,8.118286
2022-11-18T03:47:21.078Z,8.078003
2022-11-18T03:50:46.283Z,8.047791
2022-11-18T03:54:11.548Z,8.078003
2022-11-18T03:57:36.734Z,8.188782
2022-11-18T04:01:01.945Z,8.198853
2022-11-18T04:04:27.154Z,8.158569
2022-11-18T04:07:52.360Z,8.178711
2022-11-18T04:11:17.584Z,8.218994
2022-11-18T04:14:42.770Z,8.218994
2022-11-18T04:18:07.964Z,8.259277
2022-11-18T04:21:33.173Z,8.299561
2022-11-18T04:24:58.394Z,8.359985
2022-11-18T04:28:23.617Z,8.430481
2022-11-18T04:31:48.787Z,8.500977
2022-11-18T04:35:18.961Z,8.521118
2022-11-18T04:38:47.014Z,8.531189
2022-11-18T04:42:12.285Z,8.521118
2022-11-18T04:45:37.531Z,8.531189
2022-11-18T04:49:02.717Z,8.561401
2022-11-18T04:52:28.113Z,8.581543
2022-11-18T04:55:53.356Z,8.581543
2022-11-18T04:59:19.566Z,8.591614
2022-11-18T05:02:44.332Z,8.561401
2022-11-18T05:06:09.533Z,8.551331
2022-11-18T05:09:34.748Z,8.521118
2022-11-18T05:12:59.964Z,8.531189
2022-11-18T05:16:25.152Z,8.500977
2022-11-18T05:19:50.377Z,8.480835
2022-11-18T05:23:15.564Z,8.440552
2022-11-18T05:26:40.771Z,8.450623
2022-11-18T05:30:06.011Z,8.470764
2022-11-18T05:33:31.184Z,8.470764
2022-11-18T05:36:56.397Z,8.470764
2022-11-18T05:40:21.592Z,8.480835
2022-11-18T05:43:46.792Z,8.480835
2022-11-18T05:47:11.992Z,8.470764
2022-11-18T05:50:37.224Z,8.470764
2022-11-18T05:54:02.446Z,8.470764
2022-11-18T05:57:27.628Z,8.440552
2022-11-18T06:00:52.844Z,8.470764
2022-11-18T06:04:18.049Z,8.470764
2022-11-18T06:07:43.370Z,8.521118
2022-11-18T06:11:08.483Z,8.561401
2022-11-18T06:14:33.657Z,8.561401
2022-11-18T06:17:58.862Z,8.480835
2022-11-18T06:21:24.063Z,8.500977
2022-11-18T06:24:49.278Z,8.500977
2022-11-18T06:28:14.480Z,8.450623
2022-11-18T06:31:39.878Z,8.450623
2022-11-18T06:35:05.083Z,8.410339
2022-11-18T06:38:30.294Z,8.370056
2022-11-18T06:41:55.487Z,8.339844
2022-11-18T06:45:20.768Z,8.329773
2022-11-18T06:48:45.911Z,8.359985
2022-11-18T06:52:11.111Z,8.370056
2022-11-18T06:55:36.410Z,8.339844
2022-11-18T06:59:01.627Z,8.299561
2022-11-18T07:02:26.863Z,8.339844
2022-11-18T07:05:52.045Z,8.359985
2022-11-18T07:09:17.632Z,8.380127
2022-11-18T07:12:42.470Z,8.370056
2022-11-18T07:16:07.691Z,8.430481
2022-11-18T07:19:35.896Z,8.450623
2022-11-18T07:22:58.093Z,8.551331
2022-11-18T07:26:23.322Z,8.631897
2022-11-18T07:29:48.516Z,8.652039
2022-11-18T07:33:13.715Z,8.682251
2022-11-18T07:36:38.971Z,8.682251
2022-11-18T07:40:04.134Z,8.79303
2022-11-18T07:43:29.364Z,8.772888
2022-11-18T07:46:54.566Z,8.762817
2022-11-18T07:50:19.811Z,8.742676
2022-11-18T07:53:45.038Z,8.772888
2022-11-18T07:57:10.222Z,8.79303
2022-11-18T08:00:35.433Z,8.772888
2022-11-18T08:04:00.653Z,8.803101
2022-11-18T08:07:25.934Z,8.813171
2022-11-18T08:10:51.210Z,8.813171
2022-11-18T08:14:16.292Z,8.813171
2022-11-18T08:17:41.485Z,8.79303
2022-11-18T08:21:06.715Z,8.732605
2022-11-18T08:24:31.931Z,8.662109
2022-11-18T08:27:57.147Z,8.551331
2022-11-18T08:31:22.348Z,8.480835
2022-11-18T08:34:47.550Z,8.380127
2022-11-18T08:38:12.752Z,8.380127
2022-11-18T08:41:37.996Z,8.370056
2022-11-18T08:45:03.283Z,8.339844
2022-11-18T08:48:28.393Z,8.279419
2022-11-18T08:51:53.597Z,8.229065
2022-11-18T08:55:18.817Z,8.218994
2022-11-18T08:58:44.039Z,8.188782
2022-11-18T09:02:09.335Z,8.098145
2022-11-18T09:05:34.438Z,8.067932
2022-11-18T09:09:03.435Z,8.017578
2022-11-18T09:12:24.840Z,7.997437
2022-11-18T09:15:50.047Z,7.997437
2022-11-18T09:22:40.534Z,7.926941
2022-11-18T09:26:05.732Z,7.977295
2022-11-18T09:29:30.944Z,8.017578
2022-11-18T09:32:56.157Z,7.997437
2022-11-18T09:36:21.398Z,7.947083
2022-11-18T09:39:46.572Z,7.91687
2022-11-18T09:43:11.772Z,7.886658
2022-11-18T09:46:36.980Z,7.926941
2022-11-18T09:50:15.125Z,7.947083
2022-11-18T09:53:27.426Z,7.896729
2022-11-18T09:56:52.705Z,7.846375
2022-11-18T10:00:17.822Z,7.866516
2022-11-18T10:03:43.047Z,7.78595
2022-11-18T10:07:08.306Z,7.715454
2022-11-18T10:10:33.491Z,7.6651
2022-11-18T10:13:58.668Z,7.675171
2022-11-18T10:17:23.895Z,7.6651
2022-11-18T10:20:49.107Z,7.554321
2022-11-18T10:24:14.451Z,7.524109
2022-11-18T10:27:39.554Z,7.503967
2022-11-18T10:31:04.756Z,7.463684
2022-11-18T10:34:29.955Z,7.403259
2022-11-18T10:38:07.136Z,7.272339
2022-11-18T10:41:20.400Z,7.242126
2022-11-18T10:44:45.643Z,7.242126
2022-11-18T10:48:10.833Z,7.252197
2022-11-18T10:51:36.041Z,7.131348
2022-11-18T10:55:01.250Z,7.020569
2022-11-18T10:58:26.531Z,6.950073
2022-11-18T11:01:51.897Z,6.919861
2022-11-18T11:05:16.902Z,6.919861
2022-11-18T11:08:42.124Z,6.90979
2022-11-18T11:12:07.346Z,6.809082
2022-11-18T11:15:32.569Z,6.668091
2022-11-18T11:18:57.797Z,6.728516
2022-11-18T11:22:22.970Z,6.698303
2022-11-18T11:29:13.428Z,6.728516
2022-11-18T11:32:38.644Z,6.728516
2022-11-18T11:36:03.915Z,6.698303
2022-11-18T11:39:29.060Z,6.688232
2022-11-18T11:42:54.257Z,6.698303
2022-11-18T11:46:19.449Z,6.738586
2022-11-18T11:49:44.684Z,6.688232
2022-11-18T11:53:09.907Z,6.65802
2022-11-18T11:56:35.068Z,6.577454
2022-11-18T12:00:00.284Z,6.355896
2022-11-18T12:03:25.490Z,6.335754
2022-11-18T12:06:50.696Z,6.305542
2022-11-18T12:10:15.935Z,6.355896
2022-11-18T12:13:41.131Z,6.365967
2022-11-18T12:17:06.336Z,6.40625
2022-11-18T12:20:31.543Z,6.124268
2022-11-18T12:23:56.756Z,6.144409
2022-11-18T12:27:21.986Z,6.124268
2022-11-18T12:30:47.206Z,6.184692
2022-11-18T12:34:12.417Z,6.194763
2022-11-18T12:37:37.627Z,6.03363
2022-11-18T12:41:02.832Z,5.892639
2022-11-18T12:44:28.078Z,5.852356
2022-11-18T12:47:53.255Z,5.862427
2022-11-18T12:51:18.462Z,5.852356
2022-11-18T12:54:43.660Z,5.892639
2022-11-18T12:58:08.900Z,5.892639
2022-11-18T13:01:34.126Z,5.862427
2022-11-18T13:04:59.343Z,5.822144
2022-11-18T13:08:24.546Z,5.630798
2022-11-18T13:11:49.785Z,5.459595
2022-11-18T13:15:14.948Z,5.117188
2022-11-18T13:18:40.188Z,5.036621
2022-11-18T13:22:05.367Z,4.915771
2022-11-18T13:25:30.576Z,4.956055
2022-11-18T13:28:55.795Z,4.885559
2022-11-18T13:32:21.016Z,4.784851
2022-11-18T13:35:46.279Z,4.724426
2022-11-18T13:39:11.471Z,4.77478
2022-11-18T13:42:36.680Z,4.804993
2022-11-18T13:46:01.885Z,4.502869
2022-11-18T13:49:27.121Z,4.402161
2022-11-18T13:52:52.339Z,3.908691
2022-11-18T13:56:17.546Z,3.828125
2022-11-18T13:59:42.754Z,3.838196
2022-11-18T14:03:07.947Z,3.757629
2022-11-18T14:06:33.195Z,3.938904
2022-11-18T14:09:58.416Z,4.110107
2022-11-18T14:13:23.629Z,4.160461
2022-11-18T14:16:48.847Z,4.200745
2022-11-18T14:20:14.048Z,4.200745
2022-11-18T14:23:39.262Z,4.049683
2022-11-18T14:27:04.498Z,3.656921
2022-11-18T15:05:06.381Z,3.395081
2022-11-18T15:08:31.541Z,3.354797
2022-11-18T15:11:56.750Z,3.425293
2022-11-18T15:15:21.949Z,3.445435
2022-11-18T15:18:47.154Z,3.314514
2022-11-18T15:22:12.384Z,3.334656
2022-11-18T15:25:37.602Z,3.26416
2022-11-18T15:29:02.801Z,3.314514
2022-11-18T15:32:27.995Z,3.395081
2022-11-18T15:35:53.200Z,3.465576
2022-11-18T15:39:18.480Z,3.445435
2022-11-18T15:42:50.558Z,3.445435
2022-11-18T15:46:08.816Z,3.536072
2022-11-18T15:49:34.064Z,3.354797
2022-11-18T15:52:59.192Z,3.213806
2022-11-18T15:56:24.501Z,3.082886
2022-11-18T15:59:49.624Z,3.002319
2022-11-18T16:03:14.807Z,2.810974
2022-11-18T16:06:40.044Z,2.851257
2022-11-18T16:10:05.264Z,2.589417
2022-11-18T16:13:30.475Z,2.559204
2022-11-18T16:16:55.677Z,2.599487
2022-11-18T16:20:20.890Z,2.750549
2022-11-18T16:23:46.108Z,2.790833
2022-11-18T16:27:11.309Z,2.790833
2022-11-18T16:30:36.545Z,2.488708
2022-11-18T16:34:01.718Z,2.236938
2022-11-18T16:37:26.905Z,1.904602
2022-11-18T16:40:52.127Z,1.411133
2022-11-18T16:44:17.331Z,1.662903
2022-11-18T16:47:42.618Z,1.703186
2022-11-18T16:51:07.786Z,1.864319
2022-11-18T16:54:33.000Z,1.904602
2022-11-18T16:57:58.199Z,1.975098
2022-11-18T17:01:27.910Z,1.803894
2022-11-18T17:04:48.623Z,1.703186
2022-11-18T17:08:13.809Z,1.481628
2022-11-18T17:11:39.017Z,1.481628
2022-11-18T17:15:04.215Z,1.511841
2022-11-18T17:18:29.409Z,1.37085
2022-11-18T17:21:54.647Z,1.552124
2022-11-18T17:25:19.828Z,1.844177
2022-11-18T17:28:45.028Z,1.864319
2022-11-18T17:32:10.228Z,1.662903
2022-11-18T17:35:35.434Z,1.340637
2022-11-18T17:39:00.693Z,1.320496
2022-11-18T17:42:25.862Z,0.968018
2022-11-18T17:45:51.084Z,0.827026
2022-11-18T17:49:16.318Z,0.696106
2022-11-18T17:52:41.537Z,0.61554
2022-11-18T17:56:06.783Z,0.675964
2022-11-18T17:59:31.984Z,0.837097
2022-11-18T18:02:57.194Z,0.937805
2022-11-18T18:06:22.420Z,0.424194
2022-11-18T18:09:47.638Z,0.293274
2022-11-18T18:13:12.894Z,0.202637
2022-11-18T18:16:38.078Z,-0.00885
2022-11-18T18:20:03.285Z,0.021362
2022-11-18T18:23:28.491Z,-0.069275
2022-11-18T18:26:53.709Z,0.112
2022-11-18T18:30:18.968Z,0.172424
2022-11-18T18:33:44.134Z,0.263062
2022-11-18T18:37:09.353Z,0.152283
2022-11-18T18:40:34.593Z,0.031433
2022-11-18T18:43:59.787Z,0.293274
2022-11-18T18:47:25.014Z,0.202637
2022-11-18T18:50:50.203Z,-0.069275
2022-11-18T18:54:15.541Z,-0.230408
2022-11-18T18:57:40.627Z,-0.139771
2022-11-18T19:01:05.882Z,-0.230408
2022-11-18T19:04:31.173Z,-0.492249
2022-11-18T19:07:56.286Z,-0.361328
2022-11-18T19:11:21.472Z,-0.290833
2022-11-18T19:14:46.692Z,-0.049133
2022-11-18T19:18:11.935Z,0.232849
2022-11-18T19:21:37.133Z,0.001221
2022-11-18T19:25:02.328Z,-0.099487
2022-11-18T19:28:28.456Z,-0.069275
2022-11-18T19:31:53.689Z,-0.028992
2022-11-18T19:35:18.913Z,-0.069275
2022-11-18T19:38:44.121Z,-0.139771
2022-11-18T19:42:09.304Z,-0.109558
2022-11-18T19:45:34.582Z,-0.220337
2022-11-18T19:48:59.818Z,-0.230408
2022-11-18T19:52:25.035Z,-0.220337
2022-11-18T19:55:50.307Z,-0.220337
2022-11-18T19:59:15.642Z,-0.079346
2022-11-18T20:02:40.740Z,-0.310974
2022-11-18T20:06:05.974Z,-0.51239
2022-11-18T20:09:31.201Z,-0.653381
2022-11-18T20:12:56.441Z,-0.623169
2022-11-18T20:16:21.624Z,-0.441895
2022-11-18T20:19:46.844Z,-0.854797
2022-11-18T20:23:12.093Z,-0.854797
2022-11-18T20:26:37.264Z,-0.784302
2022-11-18T20:30:02.512Z,-0.733948
2022-11-18T20:33:27.652Z,-0.552673
2022-11-18T20:36:52.859Z,-0.582886
2022-11-18T20:40:18.067Z,-0.492249
2022-11-18T20:43:43.262Z,-0.613098
2022-11-18T20:47:08.580Z,-0.653381
2022-11-18T20:50:33.663Z,-0.462036
2022-11-18T20:53:58.878Z,-0.139771
2022-11-18T20:57:24.079Z,-0.099487
2022-11-18T21:00:49.280Z,-0.220337
2022-11-18T21:04:14.545Z,-0.159912
2022-11-18T21:07:39.724Z,-0.230408
2022-11-18T21:11:04.858Z,-0.26062
2022-11-18T21:14:30.057Z,-0.159912
2022-11-18T21:17:55.283Z,0.081787
2022-11-18T21:21:20.516Z,0.031433
2022-11-18T21:24:45.693Z,-0.250549
2022-11-18T21:28:10.883Z,-0.310974
2022-11-18T21:31:36.073Z,-0.310974
2022-11-18T21:35:01.265Z,-0.361328
2022-11-18T21:38:26.468Z,-0.492249
2022-11-18T21:41:55.547Z,-0.522461
2022-11-18T21:45:16.848Z,-0.603027
2022-11-18T21:48:42.074Z,-0.653381
2022-11-18T21:52:07.282Z,-0.542603
2022-11-18T21:55:32.504Z,-0.582886
2022-11-18T21:58:57.688Z,-0.653381
2022-11-18T22:02:22.874Z,-0.421753
2022-11-18T22:05:48.071Z,-0.431824
2022-11-18T22:09:13.280Z,-0.280762
2022-11-18T22:12:38.513Z,-0.26062
2022-11-18T22:16:03.719Z,-0.401611
2022-11-18T22:19:28.912Z,-0.754089
2022-11-18T22:22:54.110Z,-0.623169
2022-11-18T22:26:19.317Z,-0.673523
2022-11-18T22:29:44.554Z,-0.643311
2022-11-18T22:33:09.738Z,-0.431824
2022-11-18T22:36:34.941Z,-0.341187
2022-11-18T22:40:00.178Z,-0.341187
2022-11-18T22:43:25.388Z,-0.441895
2022-11-18T22:46:50.660Z,-0.472107
2022-11-18T22:50:15.774Z,-0.623169
2022-11-18T22:53:40.965Z,-0.643311
2022-11-18T22:57:06.176Z,-0.693665
2022-11-18T23:00:31.386Z,-0.492249
2022-11-18T23:03:56.618Z,-0.441895
2022-11-18T23:07:21.818Z,-0.441895
2022-11-18T23:10:46.979Z,-0.51239
2022-11-18T23:14:12.167Z,-0.462036
2022-11-18T23:17:37.376Z,-0.542603
2022-11-18T23:21:02.618Z,-0.492249
2022-11-18T23:24:27.793Z,-0.391541
2022-11-18T23:27:54.287Z,-0.341187
2022-11-18T23:31:18.194Z,-0.492249
2022-11-18T23:34:43.390Z,-0.582886
2022-11-18T23:38:08.623Z,-0.472107
2022-11-18T23:41:33.815Z,-0.653381
2022-11-18T23:45:03.876Z,-0.945435
2022-11-18T23:48:24.212Z,-0.824585
2022-11-18T23:51:49.410Z,-0.582886
2022-11-18T23:55:14.646Z,-0.88501
2022-11-18T23:58:39.809Z,-0.854797
